Open Full Screen Window  High Contrast Mode
May 05, 2015 7:14 AM EDT
Weather Information
Wind Direction
  ---
Wind Speed
  00 kt (0 mph)
Wind Gust
  00 kt (0 mph)
Altimeter
30.26 in
Visibility
10 SM
Temperature
15° C
59° F
Dewpoint
15° C
59° F
Humidity
100%
1hr Rain Fall
00.00 in.
24hr Rain Fall
00.00 in.
Sky Condition
Clear
VFR

METAR KI69 051114Z AUTO 00000KT 10SM CLR 15/15 A3026 RMK AO1

*Background is not an actual portrayal of the airport.